createdAt,value
2018-04-14T00:01:45.339Z,35.20
2018-04-14T00:04:14.679Z,38.60
2018-04-14T00:06:44.006Z,40.77
2018-04-14T00:09:13.332Z,38.70
2018-04-14T00:11:42.663Z,32.53
2018-04-14T00:14:11.978Z,37.37
2018-04-14T00:16:41.345Z,43.33
2018-04-14T00:19:10.682Z,43.00
2018-04-14T00:21:40.020Z,33.60
2018-04-14T00:24:10.126Z,42.17
2018-04-14T00:26:40.233Z,36.33
2018-04-14T00:29:09.541Z,37.30
2018-04-14T00:31:38.998Z,36.80
2018-04-14T00:34:08.326Z,42.40
2018-04-14T00:36:37.645Z,45.93
2018-04-14T00:39:06.955Z,44.80
2018-04-14T00:41:37.059Z,35.60
2018-04-14T00:44:06.384Z,35.47
2018-04-14T00:46:36.495Z,45.17
2018-04-14T00:49:05.807Z,44.07
2018-04-14T00:51:35.891Z,34.03
2018-04-14T00:54:05.239Z,36.90
2018-04-14T00:56:35.341Z,36.77
2018-04-14T00:59:04.670Z,35.00
2018-04-14T01:01:34.789Z,39.83
2018-04-14T01:04:04.866Z,35.47
2018-04-14T01:06:34.202Z,39.67
2018-04-14T01:09:04.295Z,36.60
2018-04-14T01:11:33.602Z,41.93
2018-04-14T01:14:02.947Z,39.90
2018-04-14T01:16:32.282Z,42.03
2018-04-14T01:19:01.595Z,35.17
2018-04-14T01:21:30.945Z,39.33
2018-04-14T01:24:01.055Z,39.53
2018-04-14T01:26:31.153Z,35.80
2018-04-14T01:29:00.471Z,39.47
2018-04-14T01:31:29.791Z,35.80
2018-04-14T01:33:59.897Z,41.43
2018-04-14T01:36:29.226Z,32.73
2018-04-14T01:38:58.557Z,44.43
2018-04-14T01:41:27.867Z,40.70
2018-04-14T01:43:57.220Z,40.43
2018-04-14T01:46:28.226Z,43.93
2018-04-14T01:48:57.563Z,41.10
2018-04-14T01:51:27.650Z,44.23
2018-04-14T01:53:57.566Z,39.97
2018-04-14T01:56:26.908Z,47.30
2018-04-14T01:58:57.018Z,48.17
2018-04-14T02:01:26.342Z,42.47
2018-04-14T02:03:55.673Z,43.93
2018-04-14T02:06:25.750Z,44.33
2018-04-14T02:08:55.858Z,49.77
2018-04-14T02:11:25.188Z,49.40
2018-04-14T02:13:55.288Z,43.87
2018-04-14T02:16:25.389Z,52.87
2018-04-14T02:18:54.713Z,53.03
2018-04-14T02:21:24.802Z,44.53
2018-04-14T02:23:55.162Z,42.60
2018-04-14T02:26:25.284Z,51.43
2018-04-14T02:28:54.629Z,46.60
2018-04-14T02:31:23.932Z,49.53
2018-04-14T02:33:53.246Z,46.53
2018-04-14T02:36:23.455Z,40.20
2018-04-14T02:38:52.970Z,50.27
2018-04-14T02:41:25.107Z,50.73
2018-04-14T02:43:54.449Z,47.10
2018-04-14T02:46:23.773Z,59.50
2018-04-14T02:48:53.109Z,45.70
2018-04-14T02:51:23.181Z,47.60
2018-04-14T02:53:52.512Z,52.50
2018-04-14T02:56:22.605Z,47.70
2018-04-14T02:58:51.931Z,42.80
2018-04-14T03:01:21.273Z,53.00
2018-04-14T03:03:50.594Z,52.97
2018-04-14T03:06:19.946Z,54.27
2018-04-14T03:08:49.284Z,51.13
2018-04-14T03:11:21.753Z,50.63
2018-04-14T03:13:51.148Z,61.90
2018-04-14T03:16:21.266Z,56.63
2018-04-14T03:18:50.619Z,59.60
2018-04-14T03:21:20.672Z,59.13
2018-04-14T03:23:50.024Z,59.43
2018-04-14T03:26:19.382Z,59.47
2018-04-14T03:28:48.852Z,63.30
2018-04-14T03:31:19.476Z,63.33
2018-04-14T03:33:48.753Z,60.40
2018-04-14T03:36:18.080Z,56.93
2018-04-14T03:38:47.411Z,62.40
2018-04-14T03:41:16.750Z,54.20
2018-04-14T03:43:46.824Z,61.90
2018-04-14T03:46:16.191Z,59.10
2018-04-14T03:48:45.649Z,50.97
2018-04-14T03:51:14.949Z,67.83
2018-04-14T03:53:44.319Z,58.03
2018-04-14T03:56:13.648Z,67.97
2018-04-14T03:58:42.983Z,52.27
2018-04-14T04:01:13.111Z,63.50
2018-04-14T04:03:43.083Z,51.80
2018-04-14T04:06:12.426Z,60.33
2018-04-14T04:08:42.505Z,61.47
2018-04-14T04:11:11.858Z,62.93
2018-04-14T04:13:41.964Z,60.83
2018-04-14T04:16:12.061Z,55.43
2018-04-14T04:18:59.203Z,75.27
2018-04-14T04:21:46.964Z,53.13
2018-04-14T04:24:34.842Z,57.80
2018-04-14T04:27:04.172Z,54.07
2018-04-14T04:29:33.477Z,61.37
2018-04-14T04:32:03.395Z,56.47
2018-04-14T04:34:33.487Z,63.43
2018-04-14T04:37:02.828Z,66.60
2018-04-14T04:39:32.923Z,63.80
2018-04-14T04:42:02.294Z,59.40
2018-04-14T04:44:31.614Z,55.67
2018-04-14T04:47:01.148Z,57.57
2018-04-14T04:49:30.518Z,55.30
2018-04-14T04:51:59.840Z,64.10
2018-04-14T04:54:29.199Z,58.03
2018-04-14T04:56:58.542Z,49.07
2018-04-14T04:59:27.885Z,66.93
2018-04-14T05:01:57.977Z,74.10
2018-04-14T05:04:28.256Z,57.43
2018-04-14T05:06:58.323Z,64.17
2018-04-14T05:09:28.633Z,56.03
2018-04-14T05:11:58.175Z,63.90
2018-04-14T05:14:28.302Z,59.30
2018-04-14T05:17:00.337Z,57.57
2018-04-14T05:19:29.679Z,68.50
2018-04-14T05:21:58.990Z,67.37
2018-04-14T05:24:28.417Z,63.30
2018-04-14T05:26:57.742Z,63.73
2018-04-14T05:29:27.075Z,67.37
2018-04-14T05:31:57.195Z,68.07
2018-04-14T05:34:27.283Z,71.53
2018-04-14T05:36:56.632Z,62.10
2018-04-14T05:39:26.759Z,67.60
2018-04-14T05:41:56.058Z,61.70
2018-04-14T05:44:25.409Z,55.50
2018-04-14T05:46:54.758Z,61.07
2018-04-14T05:49:24.851Z,62.40
2018-04-14T05:51:54.179Z,53.93
2018-04-14T05:54:24.270Z,48.43
2018-04-14T05:56:53.625Z,47.90
2018-04-14T05:59:22.938Z,53.40
2018-04-14T06:01:52.298Z,46.73
2018-04-14T06:04:21.616Z,47.53
2018-04-14T06:06:51.723Z,51.37
2018-04-14T06:09:21.841Z,50.83
2018-04-14T06:11:51.162Z,46.67
2018-04-14T06:14:20.501Z,43.63
2018-04-14T06:16:49.810Z,49.30
2018-04-14T06:19:19.145Z,44.67
2018-04-14T06:21:48.492Z,46.03
2018-04-14T06:24:18.382Z,47.67
2018-04-14T06:26:48.487Z,48.27
2018-04-14T06:29:18.566Z,40.17
2018-04-14T06:31:47.907Z,43.57
2018-04-14T06:34:17.451Z,39.37
2018-04-14T06:36:46.771Z,45.23
2018-04-14T06:39:16.213Z,41.90
2018-04-14T06:41:45.894Z,36.37
2018-04-14T06:44:15.224Z,42.20
2018-04-14T06:46:45.130Z,32.83
2018-04-14T06:49:15.177Z,34.73
2018-04-14T06:51:44.515Z,41.73
2018-04-14T06:54:13.878Z,36.37
2018-04-14T06:56:43.185Z,42.27
2018-04-14T06:59:12.515Z,42.87
2018-04-14T07:01:42.633Z,35.93
2018-04-14T07:04:12.729Z,40.07
2018-04-14T07:06:42.072Z,42.90
2018-04-14T07:09:11.399Z,40.80
2018-04-14T07:11:40.706Z,41.10
2018-04-14T07:14:10.047Z,35.63
2018-04-14T07:16:39.911Z,36.80
2018-04-14T07:19:09.256Z,32.17
2018-04-14T07:21:38.567Z,37.67
2018-04-14T07:24:08.481Z,35.90
2018-04-14T07:26:37.812Z,35.23
2018-04-14T07:29:07.138Z,30.33
2018-04-14T07:31:36.801Z,31.23
2018-04-14T07:34:07.111Z,25.20
2018-04-14T07:36:36.429Z,30.27
2018-04-14T07:39:06.507Z,32.37
2018-04-14T07:41:35.848Z,28.53
2018-04-14T07:44:05.976Z,33.43
2018-04-14T07:46:36.083Z,30.70
2018-04-14T07:49:05.390Z,30.90
2018-04-14T07:51:35.633Z,30.13
2018-04-14T07:54:04.935Z,28.60
2018-04-14T07:56:35.002Z,29.90
2018-04-14T07:59:04.379Z,34.70
2018-04-14T08:01:33.713Z,31.87
2018-04-14T08:04:03.090Z,26.67
2018-04-14T08:06:32.394Z,28.00
2018-04-14T08:09:01.701Z,28.53
2018-04-14T08:11:31.043Z,32.47
2018-04-14T08:14:00.373Z,30.90
2018-04-14T08:16:30.489Z,30.90
2018-04-14T08:19:00.845Z,30.03
2018-04-14T08:21:31.193Z,29.03
2018-04-14T08:24:00.495Z,28.33
2018-04-14T08:26:31.277Z,27.07
2018-04-14T08:29:01.392Z,26.60
2018-04-14T08:31:31.555Z,29.67
2018-04-14T08:34:00.891Z,31.30
2018-04-14T08:36:31.214Z,30.07
2018-04-14T08:39:00.753Z,31.63
2018-04-14T08:41:30.867Z,28.07
2018-04-14T08:44:00.976Z,30.30
2018-04-14T08:46:30.312Z,26.80
2018-04-14T08:48:59.677Z,28.00
2018-04-14T08:51:28.989Z,32.57
2018-04-14T08:53:58.336Z,29.83
2018-04-14T08:56:27.726Z,30.30
2018-04-14T08:58:57.017Z,34.90
2018-04-14T09:01:26.419Z,28.40
2018-04-14T09:03:56.493Z,32.53
2018-04-14T09:06:25.810Z,34.13
2018-04-14T09:08:55.142Z,31.70
2018-04-14T09:11:25.241Z,30.10
2018-04-14T09:13:54.591Z,30.87
2018-04-14T09:16:23.933Z,38.83
2018-04-14T09:18:53.258Z,36.03
2018-04-14T09:21:22.595Z,35.13
2018-04-14T09:23:51.947Z,34.57
2018-04-14T09:26:21.291Z,39.87
2018-04-14T09:28:51.382Z,34.73
2018-04-14T09:31:20.719Z,31.30
2018-04-14T09:33:50.055Z,31.60
2018-04-14T09:36:20.137Z,37.27
2018-04-14T09:38:50.237Z,38.17
2018-04-14T09:41:19.563Z,37.87
2018-04-14T09:43:49.675Z,37.17
2018-04-14T09:46:19.783Z,36.77
2018-04-14T09:48:49.099Z,40.00
2018-04-14T09:51:19.203Z,42.70
2018-04-14T09:53:48.535Z,46.80
2018-04-14T09:56:18.424Z,37.73
2018-04-14T09:58:48.802Z,38.23
2018-04-14T10:01:23.678Z,40.93
2018-04-14T10:03:55.325Z,47.07
2018-04-14T10:06:24.651Z,42.07
2018-04-14T10:08:54.791Z,44.80
2018-04-14T10:11:24.908Z,40.67
2018-04-14T10:13:54.930Z,45.70
2018-04-14T10:16:24.265Z,40.70
2018-04-14T10:18:53.700Z,42.10
2018-04-14T10:21:23.037Z,49.17
2018-04-14T10:23:53.161Z,41.87
2018-04-14T10:26:23.259Z,44.67
2018-04-14T10:28:52.601Z,49.63
2018-04-14T10:31:21.936Z,45.57
2018-04-14T10:33:51.275Z,49.73
2018-04-14T10:36:21.364Z,45.10
2018-04-14T10:38:52.428Z,46.43
2018-04-14T10:41:21.754Z,44.47
2018-04-14T10:43:51.861Z,44.47
2018-04-14T10:46:21.984Z,43.93
2018-04-14T10:48:51.302Z,40.30
2018-04-14T10:51:21.382Z,45.40
2018-04-14T10:53:50.732Z,43.93
2018-04-14T10:56:21.496Z,42.77
2018-04-14T10:58:50.820Z,46.50
2018-04-14T11:01:20.976Z,49.80
2018-04-14T11:03:58.695Z,48.33
2018-04-14T11:06:32.553Z,43.27
2018-04-14T11:09:02.748Z,49.10
2018-04-14T11:11:32.465Z,48.20
2018-04-14T11:14:01.820Z,48.13
2018-04-14T11:16:31.159Z,46.53
2018-04-14T11:19:00.516Z,44.73
2018-04-14T11:21:29.860Z,47.83
2018-04-14T11:23:59.195Z,46.17
2018-04-14T11:26:28.523Z,44.60
2018-04-14T11:28:57.881Z,44.30
2018-04-14T11:31:27.249Z,45.87
2018-04-14T11:33:57.350Z,47.80
2018-04-14T11:36:26.706Z,48.87
2018-04-14T11:38:56.026Z,41.20
2018-04-14T11:41:25.368Z,44.57
2018-04-14T11:43:54.695Z,44.73
2018-04-14T11:46:24.789Z,44.77
2018-04-14T11:48:54.963Z,43.53
2018-04-14T11:51:24.303Z,42.40
2018-04-14T11:53:53.643Z,48.83
2018-04-14T11:56:23.747Z,48.30
2018-04-14T11:58:54.967Z,45.07
2018-04-14T12:01:25.103Z,44.20
2018-04-14T12:03:54.455Z,45.43
2018-04-14T12:06:23.792Z,45.83
2018-04-14T12:08:53.159Z,43.97
2018-04-14T12:11:23.062Z,42.17
2018-04-14T12:13:52.393Z,43.60
2018-04-14T12:16:23.412Z,43.37
2018-04-14T12:18:52.744Z,39.00
2018-04-14T12:21:23.409Z,37.33
2018-04-14T12:23:52.747Z,37.07
2018-04-14T12:26:22.078Z,39.77
2018-04-14T12:28:51.404Z,37.57
2018-04-14T12:31:20.752Z,37.17
2018-04-14T12:33:50.078Z,34.67
2018-04-14T12:36:19.398Z,34.40
2018-04-14T12:38:48.789Z,36.33
2018-04-14T12:41:18.132Z,33.77
2018-04-14T12:43:47.502Z,36.63
2018-04-14T12:46:16.816Z,40.40
2018-04-14T12:48:46.153Z,32.27
2018-04-14T12:51:16.230Z,32.87
2018-04-14T12:53:45.584Z,30.27
2018-04-14T12:56:15.721Z,37.70
2018-04-14T12:58:45.062Z,38.50
2018-04-14T13:01:15.190Z,36.37
2018-04-14T13:03:44.514Z,28.60
2018-04-14T13:06:13.894Z,32.13
2018-04-14T13:08:43.249Z,28.80
2018-04-14T13:11:13.350Z,30.97
2018-04-14T13:13:42.718Z,33.97
2018-04-14T13:16:12.051Z,34.33
2018-04-14T13:18:41.394Z,35.43
2018-04-14T13:21:10.738Z,36.43
2018-04-14T13:23:40.112Z,35.43
2018-04-14T13:26:09.468Z,33.93
2018-04-14T13:28:38.798Z,31.93
2018-04-14T13:31:08.896Z,29.77
2018-04-14T13:33:38.259Z,33.00
2018-04-14T13:36:07.592Z,30.87
2018-04-14T13:38:36.981Z,31.03
2018-04-14T13:41:06.420Z,28.70
2018-04-14T13:43:36.508Z,31.30
2018-04-14T13:46:05.855Z,31.57
2018-04-14T13:48:35.174Z,31.73
2018-04-14T13:51:04.557Z,32.33
2018-04-14T13:53:34.750Z,31.10
2018-04-14T13:56:04.080Z,33.03
2018-04-14T13:58:34.352Z,32.37
2018-04-14T14:01:03.676Z,46.60
2018-04-14T14:03:32.999Z,28.53
2018-04-14T14:06:02.902Z,29.30
2018-04-14T14:08:32.851Z,28.20
2018-04-14T14:11:02.993Z,30.83
2018-04-14T14:13:32.341Z,26.57
2018-04-14T14:16:01.733Z,30.50
2018-04-14T14:18:31.087Z,27.90
2018-04-14T14:21:00.527Z,25.70
2018-04-14T14:23:29.859Z,27.03
2018-04-14T14:25:59.183Z,22.50
2018-04-14T14:28:28.702Z,25.90
2018-04-14T14:30:58.082Z,24.67
2018-04-14T14:33:27.549Z,25.50
2018-04-14T14:35:56.894Z,25.07
2018-04-14T14:38:26.243Z,24.47
2018-04-14T14:40:55.621Z,25.33
2018-04-14T14:43:27.014Z,26.57
2018-04-14T14:45:56.910Z,23.37
2018-04-14T14:48:26.287Z,23.53
2018-04-14T14:50:56.375Z,24.23
2018-04-14T14:53:25.752Z,24.27
2018-04-14T14:55:55.154Z,27.53
2018-04-14T14:58:25.955Z,21.57
2018-04-14T15:00:55.316Z,21.90
2018-04-14T15:03:24.627Z,25.03
2018-04-14T15:05:54.015Z,24.10
2018-04-14T15:08:25.075Z,21.17
2018-04-14T15:10:54.431Z,19.90
2018-04-14T15:13:23.761Z,21.83
2018-04-14T15:15:53.204Z,21.50
2018-04-14T15:18:22.891Z,20.60
2018-04-14T15:20:53.027Z,26.17
2018-04-14T15:23:22.393Z,23.80
2018-04-14T15:25:52.480Z,22.23
2018-04-14T15:28:22.600Z,20.33
2018-04-14T15:30:52.678Z,28.50
2018-04-14T15:33:22.007Z,20.40
2018-04-14T15:35:52.242Z,21.70
2018-04-14T15:38:23.130Z,18.03
2018-04-14T15:40:52.660Z,20.43
2018-04-14T15:43:22.224Z,24.80
2018-04-14T15:45:51.528Z,25.63
2018-04-14T15:48:21.698Z,25.27
2018-04-14T15:50:51.057Z,64.23
2018-04-14T15:53:20.396Z,33.20
2018-04-14T15:55:49.775Z,26.73
2018-04-14T15:58:19.105Z,21.27
2018-04-14T16:00:48.454Z,26.50
2018-04-14T16:03:17.786Z,24.77
2018-04-14T16:05:47.383Z,27.43
2018-04-14T16:08:16.698Z,28.73
2018-04-14T16:10:46.065Z,26.17
2018-04-14T16:13:15.421Z,25.67
2018-04-14T16:15:44.777Z,27.07
2018-04-14T16:18:14.145Z,24.73
2018-04-14T16:20:44.028Z,24.57
2018-04-14T16:23:13.401Z,30.30
2018-04-14T16:25:42.705Z,31.33
2018-04-14T16:28:12.058Z,26.37
2018-04-14T16:30:42.130Z,23.60
2018-04-14T16:33:11.588Z,26.67
2018-04-14T16:35:40.933Z,26.30
2018-04-14T16:38:10.282Z,25.57
2018-04-14T16:40:39.647Z,26.70
2018-04-14T16:43:09.771Z,24.07
2018-04-14T16:45:39.099Z,26.33
2018-04-14T16:48:08.645Z,25.43
2018-04-14T16:50:38.755Z,22.77
2018-04-14T16:53:08.077Z,26.90
2018-04-14T16:55:38.190Z,26.27
2018-04-14T16:58:08.270Z,22.97
2018-04-14T17:00:37.656Z,26.97
2018-04-14T17:03:06.992Z,22.07
2018-04-14T17:05:37.078Z,26.37
2018-04-14T17:08:06.431Z,24.83
2018-04-14T17:10:35.752Z,27.47
2018-04-14T17:13:05.847Z,30.13
2018-04-14T17:15:38.641Z,28.93
2018-04-14T17:18:08.695Z,28.73
2018-04-14T17:20:42.386Z,32.83
2018-04-14T17:23:12.488Z,30.30
2018-04-14T17:25:59.589Z,27.13
2018-04-14T17:28:28.930Z,25.07
2018-04-14T17:30:59.499Z,30.83
2018-04-14T17:33:29.578Z,24.80
2018-04-14T17:35:59.685Z,29.83
2018-04-14T17:38:29.012Z,32.03
2018-04-14T17:40:58.751Z,25.23
2018-04-14T17:43:28.094Z,27.30
2018-04-14T17:45:57.423Z,25.60
2018-04-14T17:48:27.499Z,22.57
2018-04-14T17:50:56.925Z,20.43
2018-04-14T17:53:26.237Z,23.23
2018-04-14T17:55:56.339Z,23.60
2018-04-14T17:58:25.954Z,24.87
2018-04-14T18:00:55.305Z,24.53
2018-04-14T18:03:25.357Z,28.00
2018-04-14T18:05:54.696Z,27.40
2018-04-14T18:08:24.775Z,23.10
2018-04-14T18:10:54.087Z,25.10
2018-04-14T18:13:23.415Z,25.77
2018-04-14T18:15:53.500Z,25.37
2018-04-14T18:18:22.836Z,27.73
2018-04-14T18:20:52.194Z,27.50
2018-04-14T18:23:21.530Z,31.43
2018-04-14T18:25:50.857Z,27.03
2018-04-14T18:28:20.943Z,27.20
2018-04-14T18:30:50.319Z,23.07
2018-04-14T18:33:19.650Z,30.40
2018-04-14T18:35:49.875Z,36.20
2018-04-14T18:38:19.215Z,31.30
2018-04-14T18:40:49.283Z,35.53
2018-04-14T18:43:18.594Z,33.33
2018-04-14T18:45:47.922Z,30.77
2018-04-14T18:48:17.259Z,34.93
2018-04-14T18:50:47.391Z,35.00
2018-04-14T18:53:16.724Z,39.47
2018-04-14T18:55:46.077Z,34.37
2018-04-14T18:58:16.183Z,35.43
2018-04-14T19:00:46.272Z,35.63
2018-04-14T19:03:15.590Z,34.33
2018-04-14T19:05:44.932Z,36.40
2018-04-14T19:08:14.247Z,42.93
2018-04-14T19:10:43.603Z,37.27
2018-04-14T19:13:12.937Z,40.90
2018-04-14T19:15:42.280Z,38.33
2018-04-14T19:18:11.639Z,48.60
2018-04-14T19:20:41.725Z,36.67
2018-04-14T19:23:11.055Z,36.90
2018-04-14T19:25:41.146Z,39.23
2018-04-14T19:28:11.059Z,38.97
2018-04-14T19:30:40.396Z,39.90
2018-04-14T19:33:10.760Z,45.60
2018-04-14T19:35:40.121Z,38.67
2018-04-14T19:38:10.265Z,38.70
2018-04-14T19:40:39.620Z,43.77
2018-04-14T19:43:08.932Z,34.83
2018-04-14T19:45:39.070Z,42.80
2018-04-14T19:48:09.172Z,38.40
2018-04-14T19:50:39.320Z,40.73
2018-04-14T19:53:09.434Z,41.00
2018-04-14T19:55:39.556Z,41.87
2018-04-14T19:58:09.713Z,38.43
2018-04-14T20:00:39.040Z,43.27
2018-04-14T20:03:08.402Z,37.83
2018-04-14T20:05:37.736Z,45.97
2018-04-14T20:08:07.407Z,41.93
2018-04-14T20:10:37.506Z,44.90
2018-04-14T20:13:06.841Z,45.60
2018-04-14T20:15:36.159Z,41.70
2018-04-14T20:18:05.542Z,49.90
2018-04-14T20:20:34.871Z,45.93
2018-04-14T20:23:04.575Z,41.90
2018-04-14T20:25:33.964Z,49.33
2018-04-14T20:28:03.999Z,47.33
2018-04-14T20:30:33.310Z,50.77
2018-04-14T20:33:03.438Z,47.77
2018-04-14T20:35:32.814Z,46.13
2018-04-14T20:38:02.138Z,48.60
2018-04-14T20:40:31.519Z,49.13
2018-04-14T20:43:00.851Z,53.90
2018-04-14T20:45:30.166Z,48.47
2018-04-14T20:47:59.511Z,47.77
2018-04-14T20:50:29.597Z,49.97
2018-04-14T20:52:58.956Z,47.97
2018-04-14T20:55:28.308Z,47.83
2018-04-14T20:57:57.614Z,48.70
2018-04-14T21:00:28.161Z,50.00
2018-04-14T21:02:57.493Z,51.83
2018-04-14T21:05:26.842Z,51.50
2018-04-14T21:07:56.176Z,47.97
2018-04-14T21:10:26.279Z,49.10
2018-04-14T21:12:55.621Z,48.23
2018-04-14T21:15:24.946Z,49.77
2018-04-14T21:17:54.262Z,56.13
2018-04-14T21:20:23.616Z,47.10
2018-04-14T21:22:53.542Z,47.30
2018-04-14T21:25:22.883Z,41.53
2018-04-14T21:27:52.243Z,46.03
2018-04-14T21:30:22.347Z,51.37
2018-04-14T21:32:52.466Z,51.47
2018-04-14T21:35:22.651Z,48.10
2018-04-14T21:37:51.966Z,46.20
2018-04-14T21:40:21.292Z,50.37
2018-04-14T21:42:51.394Z,46.20
2018-04-14T21:45:20.718Z,51.43
2018-04-14T21:47:50.951Z,51.03
2018-04-14T21:50:21.049Z,49.93
2018-04-14T21:52:50.388Z,52.07
2018-04-14T21:55:19.731Z,50.40
2018-04-14T21:57:49.098Z,49.33
2018-04-14T22:00:18.435Z,53.23
2018-04-14T22:02:47.778Z,50.37
2018-04-14T22:05:17.853Z,51.37
2018-04-14T22:07:47.199Z,56.07
2018-04-14T22:10:16.557Z,47.53
2018-04-14T22:12:45.911Z,53.00
2018-04-14T22:15:15.998Z,49.03
2018-04-14T22:17:45.332Z,51.60
2018-04-14T22:20:14.698Z,53.43
2018-04-14T22:22:44.024Z,47.77
2018-04-14T22:25:13.348Z,49.57
2018-04-14T22:27:43.455Z,50.23
2018-04-14T22:30:13.627Z,50.37
2018-04-14T22:32:42.976Z,49.30
2018-04-14T22:35:12.313Z,53.80
2018-04-14T22:37:42.491Z,55.13
2018-04-14T22:40:11.762Z,52.03
2018-04-14T22:42:42.169Z,57.63
2018-04-14T22:45:11.477Z,48.27
2018-04-14T22:47:40.927Z,51.37
2018-04-14T22:50:10.274Z,53.73
2018-04-14T22:52:39.647Z,50.90
2018-04-14T22:55:08.971Z,59.07
2018-04-14T22:57:39.180Z,55.97
2018-04-14T23:00:09.261Z,57.80
2018-04-14T23:02:38.623Z,58.80
2018-04-14T23:05:08.156Z,61.43
2018-04-14T23:07:37.557Z,58.50
2018-04-14T23:10:07.885Z,56.17
2018-04-14T23:12:37.200Z,57.47
2018-04-14T23:15:06.534Z,61.67
2018-04-14T23:17:35.855Z,55.63
2018-04-14T23:20:05.959Z,60.97
2018-04-14T23:22:35.298Z,60.43
2018-04-14T23:25:04.625Z,61.97
2018-04-14T23:27:33.958Z,59.77
2018-04-14T23:30:03.298Z,55.03
2018-04-14T23:32:33.382Z,58.97
2018-04-14T23:35:02.712Z,59.97
2018-04-14T23:37:32.829Z,57.03
2018-04-14T23:40:02.937Z,62.53
2018-04-14T23:42:32.275Z,62.80
2018-04-14T23:45:01.628Z,56.60
2018-04-14T23:47:30.930Z,60.10
2018-04-14T23:50:00.301Z,62.97
2018-04-14T23:52:29.635Z,60.47
2018-04-14T23:54:58.975Z,64.40
2018-04-14T23:57:29.080Z,60.63
2018-04-14T23:59:58.413Z,63.43
